createdAt,value
2018-11-20T00:00:17.274Z,27.80
2018-11-20T00:03:02.817Z,30.23
2018-11-20T00:05:52.051Z,28.00
2018-11-20T00:08:35.637Z,27.90
2018-11-20T00:11:24.056Z,27.03
2018-11-20T00:14:26.658Z,27.50
2018-11-20T00:17:09.140Z,27.07
2018-11-20T00:19:53.671Z,28.37
2018-11-20T00:22:44.091Z,28.57
2018-11-20T00:25:33.353Z,27.60
2018-11-20T00:28:26.496Z,27.80
2018-11-20T00:31:28.908Z,29.33
2018-11-20T00:34:18.063Z,30.13
2018-11-20T00:37:17.277Z,29.83
2018-11-20T00:40:06.377Z,27.13
2018-11-20T00:42:53.316Z,28.23
2018-11-20T00:45:52.999Z,28.53
2018-11-20T00:48:44.789Z,26.90
2018-11-20T00:51:27.800Z,26.17
2018-11-20T00:54:17.051Z,27.07
2018-11-20T00:57:16.593Z,26.33
2018-11-20T01:00:16.265Z,26.90
2018-11-20T01:03:09.625Z,28.00
2018-11-20T01:06:04.804Z,28.63
2018-11-20T01:09:07.465Z,29.23
2018-11-20T01:11:54.825Z,27.80
2018-11-20T01:14:33.316Z,30.50
2018-11-20T01:17:22.519Z,26.63
2018-11-20T01:20:11.707Z,25.30
2018-11-20T01:22:58.166Z,26.10
2018-11-20T01:25:47.105Z,27.33
2018-11-20T01:28:31.767Z,27.97
2018-11-20T01:31:25.068Z,26.80
2018-11-20T01:34:14.301Z,24.57
2018-11-20T01:37:07.354Z,25.97
2018-11-20T01:40:06.593Z,28.93
2018-11-20T01:43:12.407Z,28.00
2018-11-20T01:46:39.248Z,27.73
2018-11-20T01:49:31.129Z,25.20
2018-11-20T01:52:20.357Z,25.07
2018-11-20T01:55:12.305Z,25.13
2018-11-20T01:57:57.432Z,25.73
2018-11-20T02:00:44.079Z,24.17
2018-11-20T02:03:31.999Z,25.20
2018-11-20T02:06:19.861Z,24.50
2018-11-20T02:09:13.070Z,23.90
2018-11-20T02:12:05.340Z,22.87
2018-11-20T02:14:46.186Z,25.30
2018-11-20T02:17:45.465Z,24.00
2018-11-20T02:20:46.960Z,21.60
2018-11-20T02:23:41.932Z,23.17
2018-11-20T02:26:29.849Z,22.13
2018-11-20T02:29:18.353Z,20.63
2018-11-20T02:32:06.202Z,22.40
2018-11-20T02:35:10.676Z,23.33
2018-11-20T02:38:05.986Z,21.93
2018-11-20T02:41:01.165Z,22.47
2018-11-20T02:43:50.400Z,21.33
2018-11-20T02:46:38.847Z,23.10
2018-11-20T02:49:28.072Z,20.23
2018-11-20T02:52:16.002Z,20.03
2018-11-20T02:55:08.201Z,21.97
2018-11-20T02:58:06.990Z,22.20
2018-11-20T03:01:05.526Z,24.20
2018-11-20T03:03:54.532Z,22.33
2018-11-20T03:06:58.438Z,22.10
2018-11-20T03:09:52.925Z,20.50
2018-11-20T03:12:46.600Z,21.27
2018-11-20T03:15:35.860Z,21.27
2018-11-20T03:18:32.600Z,20.50
2018-11-20T03:21:11.103Z,20.93
2018-11-20T03:24:12.372Z,21.30
2018-11-20T03:26:54.788Z,21.00
2018-11-20T03:30:49.294Z,19.70
2018-11-20T03:33:40.165Z,18.67
2018-11-20T03:36:25.676Z,20.10
2018-11-20T03:39:13.824Z,18.50
2018-11-20T03:41:54.966Z,18.20
2018-11-20T03:44:43.079Z,19.50
2018-11-20T03:47:41.375Z,18.23
2018-11-20T03:50:30.546Z,19.63
2018-11-20T03:53:18.484Z,18.80
2018-11-20T03:56:01.018Z,18.10
2018-11-20T03:58:51.208Z,17.73
2018-11-20T04:01:43.609Z,17.47
2018-11-20T04:04:31.443Z,19.83
2018-11-20T04:07:32.786Z,19.17
2018-11-20T04:10:20.655Z,17.07
2018-11-20T04:13:00.221Z,16.97
2018-11-20T04:15:52.323Z,18.27
2018-11-20T04:18:44.458Z,19.33
2018-11-20T04:21:33.632Z,18.27
2018-11-20T04:24:26.395Z,19.10
2018-11-20T04:27:15.601Z,17.07
2018-11-20T04:30:05.461Z,19.30
2018-11-20T04:32:40.682Z,17.23
2018-11-20T04:35:37.055Z,17.30
2018-11-20T04:38:29.056Z,18.27
2018-11-20T04:41:24.429Z,17.30
2018-11-20T04:44:28.748Z,18.13
2018-11-20T04:47:16.983Z,16.00
2018-11-20T04:49:57.285Z,16.50
2018-11-20T04:52:49.090Z,16.00
2018-11-20T04:55:36.828Z,16.07
2018-11-20T04:58:31.896Z,16.20
2018-11-20T05:01:26.863Z,16.07
2018-11-20T05:04:13.257Z,16.97
2018-11-20T05:06:49.591Z,17.27
2018-11-20T05:09:56.809Z,16.63
2018-11-20T05:12:50.552Z,17.33
2018-11-20T05:15:38.117Z,16.10
2018-11-20T05:18:22.031Z,18.50
2018-11-20T05:21:26.623Z,16.10
2018-11-20T05:24:14.614Z,19.37
2018-11-20T05:27:15.869Z,17.57
2018-11-20T05:30:03.824Z,19.33
2018-11-20T05:33:08.084Z,21.50
2018-11-20T05:36:12.264Z,22.23
2018-11-20T05:39:00.617Z,21.37
2018-11-20T05:41:40.745Z,21.57
2018-11-20T05:44:28.808Z,19.83
2018-11-20T05:47:30.114Z,20.47
2018-11-20T05:50:17.838Z,18.93
2018-11-20T05:53:00.236Z,18.57
2018-11-20T05:55:58.212Z,19.97
2018-11-20T05:58:46.219Z,20.30
2018-11-20T06:01:24.492Z,19.30
2018-11-20T06:04:12.645Z,18.60
2018-11-20T06:06:55.461Z,19.40
2018-11-20T06:09:50.530Z,19.50
2018-11-20T06:12:34.212Z,19.27
2018-11-20T06:15:22.206Z,20.60
2018-11-20T06:18:11.066Z,21.90
2018-11-20T06:21:00.304Z,22.37
2018-11-20T06:23:48.472Z,33.87
2018-11-20T06:26:50.475Z,39.27
2018-11-20T06:29:38.283Z,37.87
2018-11-20T06:32:26.017Z,24.80
2018-11-20T06:35:21.146Z,36.97
2018-11-20T06:38:16.521Z,24.40
2018-11-20T06:40:57.219Z,20.37
2018-11-20T06:44:04.443Z,20.67
2018-11-20T06:47:08.913Z,20.97
2018-11-20T06:49:56.645Z,18.77
2018-11-20T06:52:44.861Z,18.87
2018-11-20T06:55:29.356Z,18.70
2018-11-20T06:58:17.387Z,18.07
2018-11-20T07:01:05.384Z,18.40
2018-11-20T07:04:09.644Z,18.27
2018-11-20T07:07:07.916Z,18.27
2018-11-20T07:09:59.855Z,18.80
2018-11-20T07:12:51.804Z,18.77
2018-11-20T07:15:39.779Z,21.93
2018-11-20T07:18:27.443Z,72.87
2018-11-20T07:21:15.514Z,28.13
2018-11-20T07:24:05.374Z,24.87
2018-11-20T07:26:55.362Z,20.03
2018-11-20T07:29:47.411Z,18.63
2018-11-20T07:32:35.189Z,16.93
2018-11-20T07:35:23.809Z,15.80
2018-11-20T07:38:13.102Z,16.77
2018-11-20T07:41:11.637Z,14.87
2018-11-20T07:44:06.128Z,14.10
2018-11-20T07:46:54.205Z,12.67
2018-11-20T07:49:40.702Z,10.07
2018-11-20T07:52:32.512Z,8.90
2018-11-20T07:55:21.812Z,8.10
2018-11-20T07:58:09.872Z,7.20
2018-11-20T08:00:53.480Z,6.60
2018-11-20T08:03:41.269Z,4.83
2018-11-20T08:06:33.216Z,5.07
2018-11-20T08:09:12.033Z,3.67
2018-11-20T08:12:19.241Z,4.97
2018-11-20T08:14:57.238Z,3.40
2018-11-20T08:17:47.623Z,4.00
2018-11-20T08:20:36.889Z,3.97
2018-11-20T08:23:26.121Z,3.60
2018-11-20T08:26:14.580Z,3.20
2018-11-20T08:29:15.790Z,3.70
2018-11-20T08:32:03.745Z,6.70
2018-11-20T08:34:52.975Z,18.20
2018-11-20T08:37:37.517Z,7.30
2018-11-20T08:40:26.733Z,4.90
2018-11-20T08:43:21.965Z,3.83
2018-11-20T08:46:09.871Z,3.00
2018-11-20T08:49:07.920Z,2.70
2018-11-20T08:52:06.437Z,2.80
2018-11-20T08:54:55.949Z,2.90
2018-11-20T08:57:56.989Z,7.47
2018-11-20T09:01:04.429Z,8.40
2018-11-20T09:03:46.559Z,3.03
2018-11-20T09:06:34.721Z,3.30
2018-11-20T09:09:26.233Z,3.37
2018-11-20T09:12:09.081Z,2.67
2018-11-20T09:15:01.013Z,3.17
2018-11-20T09:17:47.202Z,2.63
2018-11-20T09:20:35.363Z,2.40
2018-11-20T09:23:25.027Z,2.93
2018-11-20T09:26:03.920Z,2.93
2018-11-20T09:29:02.076Z,2.87
2018-11-20T09:31:50.075Z,2.93
2018-11-20T09:34:57.517Z,2.40
2018-11-20T09:37:46.216Z,2.10
2018-11-20T09:41:03.356Z,2.60
2018-11-20T09:44:21.901Z,2.67
2018-11-20T09:47:09.188Z,2.40
2018-11-20T09:50:16.479Z,2.47
2018-11-20T09:53:18.218Z,2.27
2018-11-20T09:56:05.490Z,2.37
2018-11-20T09:58:54.704Z,2.37
2018-11-20T10:01:41.879Z,3.57
2018-11-20T10:04:31.097Z,16.90
2018-11-20T10:07:12.624Z,9.87
2018-11-20T10:10:01.849Z,4.13
2018-11-20T10:12:51.117Z,2.60
2018-11-20T10:15:35.783Z,2.47
2018-11-20T10:18:15.794Z,3.00
2018-11-20T10:21:14.129Z,2.30
2018-11-20T10:24:18.513Z,2.50
2018-11-20T10:27:16.977Z,3.03
2018-11-20T10:30:04.929Z,3.23
2018-11-20T10:32:59.836Z,7.30
2018-11-20T10:35:47.477Z,7.67
2018-11-20T10:38:35.643Z,2.80
2018-11-20T10:41:23.907Z,2.60
2018-11-20T10:44:11.928Z,2.80
2018-11-20T10:47:01.154Z,3.40
2018-11-20T10:50:02.706Z,4.00
2018-11-20T10:52:50.835Z,2.90
2018-11-20T10:55:43.154Z,3.40
2018-11-20T10:58:31.350Z,3.80
2018-11-20T11:01:19.249Z,4.33
2018-11-20T11:04:07.483Z,4.87
2018-11-20T11:06:56.597Z,9.20
2018-11-20T11:09:58.041Z,42.50
2018-11-20T11:13:02.277Z,24.40
2018-11-20T11:15:51.533Z,10.87
2018-11-20T11:18:39.256Z,8.97
2018-11-20T11:21:33.384Z,10.63
2018-11-20T11:24:42.655Z,5.43
2018-11-20T11:27:30.464Z,3.47
2018-11-20T11:30:34.761Z,5.37
2018-11-20T11:33:26.747Z,14.40
2018-11-20T11:36:10.418Z,3.50
2018-11-20T11:38:56.341Z,2.40
2018-11-20T11:41:39.969Z,2.33
2018-11-20T11:44:29.164Z,8.73
2018-11-20T11:47:27.556Z,7.30
2018-11-20T11:50:32.965Z,5.97
2018-11-20T11:53:15.463Z,3.20
2018-11-20T11:56:03.448Z,4.20
2018-11-20T11:59:02.696Z,3.20
2018-11-20T12:04:39.288Z,4.10
2018-11-20T12:07:47.375Z,4.40
2018-11-20T12:10:42.341Z,4.20
2018-11-20T12:13:37.881Z,4.37
2018-11-20T12:16:47.226Z,6.40
2018-11-20T12:19:35.498Z,21.80
2018-11-20T12:22:23.553Z,44.27
2018-11-20T12:25:11.451Z,6.73
2018-11-20T12:27:59.334Z,5.50
2018-11-20T12:30:34.958Z,5.00
2018-11-20T12:33:27.526Z,4.43
2018-11-20T12:36:20.640Z,4.70
2018-11-20T12:39:12.549Z,6.07
2018-11-20T12:42:02.548Z,5.27
2018-11-20T12:44:50.039Z,6.47
2018-11-20T12:47:45.142Z,8.37
2018-11-20T12:50:29.385Z,9.07
2018-11-20T12:53:25.172Z,8.80
2018-11-20T12:56:03.917Z,8.40
2018-11-20T12:58:44.548Z,6.30
2018-11-20T13:01:49.251Z,5.00
2018-11-20T13:04:56.531Z,4.00
2018-11-20T13:07:37.856Z,5.43
2018-11-20T13:10:26.089Z,3.80
2018-11-20T13:13:27.387Z,36.80
2018-11-20T13:16:25.853Z,3.90
2018-11-20T13:19:13.650Z,4.67
2018-11-20T13:22:02.878Z,4.63
2018-11-20T13:24:46.901Z,4.30
2018-11-20T13:27:35.166Z,4.20
2018-11-20T13:30:25.772Z,4.10
2018-11-20T13:33:08.649Z,3.53
2018-11-20T13:36:03.666Z,3.90
2018-11-20T13:39:00.588Z,4.37
2018-11-20T13:42:07.779Z,4.10
2018-11-20T13:45:03.363Z,4.27
2018-11-20T13:48:01.415Z,4.50
2018-11-20T13:50:53.272Z,5.30
2018-11-20T13:53:41.022Z,4.70
2018-11-20T13:56:29.941Z,5.40
2018-11-20T13:59:31.225Z,5.30
2018-11-20T14:02:28.349Z,5.57
2018-11-20T14:05:13.563Z,5.40
2018-11-20T14:08:19.031Z,5.30
2018-11-20T14:11:14.463Z,5.30
2018-11-20T14:14:04.813Z,5.80
2018-11-20T14:16:52.920Z,6.13
2018-11-20T14:19:42.270Z,5.23
2018-11-20T14:22:40.282Z,7.23
2018-11-20T14:25:58.637Z,6.67
2018-11-20T14:28:37.717Z,9.40
2018-11-20T14:31:42.030Z,9.13
2018-11-20T14:34:21.192Z,8.60
2018-11-20T14:37:09.038Z,8.10
2018-11-20T14:40:10.450Z,7.10
2018-11-20T14:43:02.914Z,7.33
2018-11-20T14:45:55.007Z,7.70
2018-11-20T14:48:45.742Z,6.77
2018-11-20T14:51:31.194Z,6.73
2018-11-20T14:54:20.426Z,6.87
2018-11-20T14:57:15.303Z,6.20
2018-11-20T15:00:07.141Z,5.93
2018-11-20T15:02:55.077Z,5.83
2018-11-20T15:05:43.196Z,6.53
2018-11-20T15:08:31.655Z,6.60
2018-11-20T15:11:19.445Z,6.10
2018-11-20T15:14:07.704Z,6.40
2018-11-20T15:16:55.754Z,6.77
2018-11-20T15:20:00.178Z,6.30
2018-11-20T15:22:49.446Z,6.20
2018-11-20T15:25:37.496Z,6.50
2018-11-20T15:28:25.682Z,9.73
2018-11-20T15:31:13.807Z,14.77
2018-11-20T15:34:21.755Z,20.80
2018-11-20T15:37:08.161Z,22.00
2018-11-20T15:40:00.337Z,22.73
2018-11-20T15:42:49.580Z,24.30
2018-11-20T15:45:35.585Z,22.80
2018-11-20T15:48:27.883Z,24.37
2018-11-20T15:51:15.673Z,24.30
2018-11-20T15:54:04.375Z,24.33
2018-11-20T15:57:08.996Z,22.90
2018-11-20T16:00:13.556Z,24.60
2018-11-20T16:03:23.335Z,24.83
2018-11-20T16:06:05.801Z,26.30
2018-11-20T16:08:54.069Z,30.30
2018-11-20T16:11:57.243Z,34.53
2018-11-20T16:14:48.388Z,29.93
2018-11-20T16:17:44.118Z,28.30
2018-11-20T16:20:32.199Z,28.67
2018-11-20T16:23:14.345Z,26.47
2018-11-20T16:26:12.430Z,29.20
2018-11-20T16:29:11.657Z,27.47
2018-11-20T16:32:00.891Z,30.67
2018-11-20T16:34:52.844Z,28.07
2018-11-20T16:37:40.596Z,27.50
2018-11-20T16:40:28.767Z,23.40
2018-11-20T16:43:17.029Z,24.80
2018-11-20T16:46:05.115Z,27.00
2018-11-20T16:48:53.051Z,24.20
2018-11-20T16:51:34.996Z,25.23
2018-11-20T16:54:23.374Z,13.73
2018-11-20T16:57:24.895Z,12.43
2018-11-20T17:00:14.154Z,12.67
2018-11-20T17:03:02.040Z,13.60
2018-11-20T17:05:47.035Z,15.07
2018-11-20T17:08:30.837Z,14.30
2018-11-20T17:11:18.743Z,20.30
2018-11-20T17:14:07.503Z,16.27
2018-11-20T17:16:59.592Z,17.83
2018-11-20T17:19:44.373Z,16.33
2018-11-20T17:22:36.363Z,26.60
2018-11-20T17:25:36.031Z,27.83
2018-11-20T17:28:28.525Z,27.27
2018-11-20T17:31:13.952Z,32.57
2018-11-20T17:34:09.751Z,27.30
2018-11-20T17:37:14.322Z,27.73
2018-11-20T17:40:02.338Z,27.57
2018-11-20T17:42:57.356Z,27.13
2018-11-20T17:45:45.211Z,28.63
2018-11-20T17:48:27.705Z,27.53
2018-11-20T17:51:35.232Z,25.47
2018-11-20T17:54:12.579Z,20.87
2018-11-20T17:57:01.848Z,25.73
2018-11-20T17:59:57.037Z,20.77
2018-11-20T18:02:49.465Z,11.03
2018-11-20T18:05:43.649Z,12.47
2018-11-20T18:08:35.611Z,13.13
2018-11-20T18:11:23.690Z,15.17
2018-11-20T18:14:10.952Z,14.20
2018-11-20T18:17:02.792Z,16.23
2018-11-20T18:19:55.077Z,17.70
2018-11-20T18:22:44.964Z,17.70
2018-11-20T18:25:32.717Z,35.60
2018-11-20T18:28:21.943Z,21.37
2018-11-20T18:31:04.094Z,17.83
2018-11-20T18:33:53.382Z,18.80
2018-11-20T18:36:45.380Z,17.43
2018-11-20T18:39:49.833Z,28.80
2018-11-20T18:42:39.107Z,30.47
2018-11-20T18:45:34.686Z,31.00
2018-11-20T18:48:26.652Z,30.60
2018-11-20T18:51:13.771Z,32.90
2018-11-20T18:54:15.084Z,31.70
2018-11-20T18:57:07.098Z,35.73
2018-11-20T18:59:49.749Z,35.17
2018-11-20T19:02:48.034Z,34.50
2018-11-20T19:05:35.800Z,30.17
2018-11-20T19:08:40.608Z,27.10
2018-11-20T19:11:44.983Z,24.27
2018-11-20T19:14:24.094Z,22.50
2018-11-20T19:17:12.243Z,22.40
2018-11-20T19:20:04.278Z,23.77
2018-11-20T19:22:45.294Z,23.50
2018-11-20T19:25:32.582Z,22.73
2018-11-20T19:28:22.146Z,20.90
2018-11-20T19:31:20.692Z,21.07
2018-11-20T19:34:08.878Z,19.77
2018-11-20T19:36:58.671Z,19.50
2018-11-20T19:40:00.702Z,18.77
2018-11-20T19:42:55.490Z,20.47
2018-11-20T19:45:44.067Z,21.30
2018-11-20T19:48:35.887Z,19.63
2018-11-20T19:51:31.267Z,20.10
2018-11-20T19:54:20.554Z,20.70
2018-11-20T19:57:27.961Z,19.70
2018-11-20T20:00:20.212Z,20.20
2018-11-20T20:03:08.435Z,20.83
2018-11-20T20:05:56.440Z,20.00
2018-11-20T20:08:43.833Z,20.50
2018-11-20T20:11:48.344Z,21.57
2018-11-20T20:14:36.300Z,20.80
2018-11-20T20:17:24.048Z,22.00
2018-11-20T20:20:09.097Z,23.50
2018-11-20T20:22:57.122Z,22.97
2018-11-20T20:25:35.097Z,23.83
2018-11-20T20:28:36.758Z,21.97
2018-11-20T20:31:36.848Z,23.67
2018-11-20T20:34:18.186Z,22.67
2018-11-20T20:37:19.933Z,23.30
2018-11-20T20:40:09.181Z,23.07
2018-11-20T20:42:54.258Z,22.43
2018-11-20T20:45:44.381Z,23.13
2018-11-20T20:48:35.869Z,26.60
2018-11-20T20:51:15.434Z,25.90
2018-11-20T20:54:03.880Z,24.73
2018-11-20T20:57:08.472Z,23.30
2018-11-20T20:59:56.109Z,23.67
2018-11-20T21:02:41.693Z,21.87
2018-11-20T21:05:36.410Z,23.83
2018-11-20T21:08:17.486Z,25.53
2018-11-20T21:11:00.767Z,22.40
2018-11-20T21:13:49.895Z,23.60
2018-11-20T21:16:36.352Z,23.00
2018-11-20T21:19:31.564Z,24.27
2018-11-20T21:22:19.804Z,22.60
2018-11-20T21:25:04.635Z,22.07
2018-11-20T21:27:56.800Z,22.60
2018-11-20T21:30:46.092Z,22.73
2018-11-20T21:33:28.424Z,23.37
2018-11-20T21:36:07.821Z,24.63
2018-11-20T21:38:57.076Z,23.90
2018-11-20T21:41:49.806Z,23.00
2018-11-20T21:44:45.155Z,24.27
2018-11-20T21:47:33.071Z,21.70
2018-11-20T21:50:31.138Z,23.27
2018-11-20T21:53:26.022Z,23.40
2018-11-20T21:56:17.773Z,24.03
2018-11-20T21:59:05.119Z,22.40
2018-11-20T22:01:54.825Z,24.47
2018-11-20T22:04:55.869Z,23.90
2018-11-20T22:07:41.121Z,23.70
2018-11-20T22:10:21.609Z,24.77
2018-11-20T22:13:04.829Z,25.00
2018-11-20T22:15:52.841Z,24.77
2018-11-20T22:18:41.063Z,24.07
2018-11-20T22:21:33.140Z,24.90
2018-11-20T22:24:28.552Z,27.83
2018-11-20T22:27:10.799Z,25.83
2018-11-20T22:30:18.110Z,26.23
2018-11-20T22:33:07.347Z,23.77
2018-11-20T22:35:59.273Z,27.63
2018-11-20T22:39:00.356Z,30.20
2018-11-20T22:41:52.238Z,30.43
2018-11-20T22:44:40.016Z,28.90
2018-11-20T22:47:32.267Z,32.00
2018-11-20T22:50:21.490Z,32.97
2018-11-20T22:53:09.273Z,33.93
2018-11-20T22:55:57.298Z,34.53
2018-11-20T22:58:47.907Z,34.13
2018-11-20T23:01:35.829Z,38.07
2018-11-20T23:04:24.131Z,37.00
2018-11-20T23:07:13.357Z,39.03
2018-11-20T23:09:43.577Z,40.17
2018-11-20T23:12:13.944Z,39.03
2018-11-20T23:14:44.154Z,42.30
2018-11-20T23:17:14.419Z,38.87
2018-11-20T23:19:44.619Z,40.57
2018-11-20T23:22:14.860Z,38.50
2018-11-20T23:24:45.103Z,37.60
2018-11-20T23:27:16.635Z,39.03
2018-11-20T23:29:45.594Z,36.90
2018-11-20T23:32:15.901Z,38.73
2018-11-20T23:34:46.143Z,39.17
2018-11-20T23:37:16.415Z,39.40
2018-11-20T23:39:46.610Z,38.07
2018-11-20T23:42:16.859Z,38.10
2018-11-20T23:44:47.195Z,38.57
2018-11-20T23:47:17.422Z,36.77
2018-11-20T23:49:47.619Z,33.47
2018-11-20T23:52:17.866Z,34.33
2018-11-20T23:54:48.116Z,32.90
2018-11-20T23:57:18.318Z,32.33
2018-11-20T23:59:48.530Z,32.80
